sensor_id;sensor_type;location;lat;lon;timestamp;temperature;humidity
6210;DHT22;3138;52.550;13.148;2024-01-30T00:02:12;-0.60;99.90
6210;DHT22;3138;52.550;13.148;2024-01-30T00:04:39;-0.60;99.90
6210;DHT22;3138;52.550;13.148;2024-01-30T00:07:05;-0.60;99.90
6210;DHT22;3138;52.550;13.148;2024-01-30T00:09:34;-0.70;99.90
6210;DHT22;3138;52.550;13.148;2024-01-30T00:12:01;-0.70;99.90
6210;DHT22;3138;52.550;13.148;2024-01-30T00:14:28;-0.70;99.90
6210;DHT22;3138;52.550;13.148;2024-01-30T00:16:54;-0.80;99.90
6210;DHT22;3138;52.550;13.148;2024-01-30T00:19:21;-0.70;99.90
6210;DHT22;3138;52.550;13.148;2024-01-30T00:21:48;-0.80;99.90
6210;DHT22;3138;52.550;13.148;2024-01-30T00:24:15;-0.70;99.90
6210;DHT22;3138;52.550;13.148;2024-01-30T00:26:43;-0.80;99.90
6210;DHT22;3138;52.550;13.148;2024-01-30T00:29:10;-0.80;99.90
6210;DHT22;3138;52.550;13.148;2024-01-30T00:31:37;-0.90;99.90
6210;DHT22;3138;52.550;13.148;2024-01-30T00:34:04;-0.90;99.90
6210;DHT22;3138;52.550;13.148;2024-01-30T00:36:31;-0.90;99.90
6210;DHT22;3138;52.550;13.148;2024-01-30T00:38:59;-0.90;99.90
6210;DHT22;3138;52.550;13.148;2024-01-30T00:41:26;-0.90;99.90
6210;DHT22;3138;52.550;13.148;2024-01-30T00:43:54;-1.00;99.90
6210;DHT22;3138;52.550;13.148;2024-01-30T00:46:21;-1.00;99.90
6210;DHT22;3138;52.550;13.148;2024-01-30T00:48:48;-1.00;99.90
6210;DHT22;3138;52.550;13.148;2024-01-30T00:51:15;-1.00;99.90
6210;DHT22;3138;52.550;13.148;2024-01-30T00:53:41;-1.00;99.90
6210;DHT22;3138;52.550;13.148;2024-01-30T00:56:08;-1.00;99.90
6210;DHT22;3138;52.550;13.148;2024-01-30T00:58:35;-1.00;99.90
6210;DHT22;3138;52.550;13.148;2024-01-30T01:01:03;-1.10;99.90
6210;DHT22;3138;52.550;13.148;2024-01-30T01:03:30;-1.10;99.90
6210;DHT22;3138;52.550;13.148;2024-01-30T01:05:57;-1.10;99.90
6210;DHT22;3138;52.550;13.148;2024-01-30T01:08:24;-1.10;99.90
6210;DHT22;3138;52.550;13.148;2024-01-30T01:10:51;-1.10;99.90
6210;DHT22;3138;52.550;13.148;2024-01-30T01:13:17;-1.00;99.90
6210;DHT22;3138;52.550;13.148;2024-01-30T01:15:44;-1.10;99.90
6210;DHT22;3138;52.550;13.148;2024-01-30T01:18:12;-1.20;99.90
6210;DHT22;3138;52.550;13.148;2024-01-30T01:20:39;-1.10;99.90
6210;DHT22;3138;52.550;13.148;2024-01-30T01:23:06;-1.10;99.90
6210;DHT22;3138;52.550;13.148;2024-01-30T01:25:33;-1.10;99.90
6210;DHT22;3138;52.550;13.148;2024-01-30T01:28:00;-1.10;99.90
6210;DHT22;3138;52.550;13.148;2024-01-30T01:30:27;-1.10;99.90
6210;DHT22;3138;52.550;13.148;2024-01-30T01:32:54;-1.10;99.90
6210;DHT22;3138;52.550;13.148;2024-01-30T01:35:23;-1.10;99.90
6210;DHT22;3138;52.550;13.148;2024-01-30T01:37:51;-1.10;99.90
6210;DHT22;3138;52.550;13.148;2024-01-30T01:40:22;-1.10;99.90
6210;DHT22;3138;52.550;13.148;2024-01-30T01:42:49;-1.10;99.90
6210;DHT22;3138;52.550;13.148;2024-01-30T01:45:17;-1.20;99.90
6210;DHT22;3138;52.550;13.148;2024-01-30T01:47:45;-1.10;99.90
6210;DHT22;3138;52.550;13.148;2024-01-30T01:50:13;-1.10;99.90
6210;DHT22;3138;52.550;13.148;2024-01-30T01:52:41;-1.10;99.90
6210;DHT22;3138;52.550;13.148;2024-01-30T01:55:08;-1.10;99.90
6210;DHT22;3138;52.550;13.148;2024-01-30T01:57:35;-1.10;99.90
6210;DHT22;3138;52.550;13.148;2024-01-30T02:00:03;-1.20;99.90
6210;DHT22;3138;52.550;13.148;2024-01-30T02:02:30;-1.20;99.90
6210;DHT22;3138;52.550;13.148;2024-01-30T02:04:57;-1.20;99.90
6210;DHT22;3138;52.550;13.148;2024-01-30T02:07:24;-1.20;99.90
6210;DHT22;3138;52.550;13.148;2024-01-30T02:09:52;-1.20;99.90
6210;DHT22;3138;52.550;13.148;2024-01-30T02:12:19;-1.20;99.90
6210;DHT22;3138;52.550;13.148;2024-01-30T02:14:46;-1.20;99.90
6210;DHT22;3138;52.550;13.148;2024-01-30T02:17:13;-1.20;99.90
6210;DHT22;3138;52.550;13.148;2024-01-30T02:19:40;-1.30;99.90
6210;DHT22;3138;52.550;13.148;2024-01-30T02:22:08;-1.30;99.90
6210;DHT22;3138;52.550;13.148;2024-01-30T02:24:36;-1.30;99.90
6210;DHT22;3138;52.550;13.148;2024-01-30T02:27:03;-1.30;99.90
6210;DHT22;3138;52.550;13.148;2024-01-30T02:29:29;-1.20;99.90
6210;DHT22;3138;52.550;13.148;2024-01-30T02:31:56;-1.20;99.90
6210;DHT22;3138;52.550;13.148;2024-01-30T02:34:24;-1.30;99.90
6210;DHT22;3138;52.550;13.148;2024-01-30T02:36:50;-1.30;99.90
6210;DHT22;3138;52.550;13.148;2024-01-30T02:39:18;-1.30;99.90
6210;DHT22;3138;52.550;13.148;2024-01-30T02:41:45;-1.30;99.90
6210;DHT22;3138;52.550;13.148;2024-01-30T02:44:12;-1.30;99.90
6210;DHT22;3138;52.550;13.148;2024-01-30T02:46:39;-1.30;99.90
6210;DHT22;3138;52.550;13.148;2024-01-30T02:49:06;-1.30;99.90
6210;DHT22;3138;52.550;13.148;2024-01-30T02:51:32;-1.30;99.90
6210;DHT22;3138;52.550;13.148;2024-01-30T02:53:59;-1.30;99.90
6210;DHT22;3138;52.550;13.148;2024-01-30T02:56:27;-1.30;99.90
6210;DHT22;3138;52.550;13.148;2024-01-30T02:58:54;-1.30;99.90
6210;DHT22;3138;52.550;13.148;2024-01-30T03:01:21;-1.30;99.90
6210;DHT22;3138;52.550;13.148;2024-01-30T03:03:50;-1.30;99.90
6210;DHT22;3138;52.550;13.148;2024-01-30T03:06:16;-1.30;99.90
6210;DHT22;3138;52.550;13.148;2024-01-30T03:08:45;-1.30;99.90
6210;DHT22;3138;52.550;13.148;2024-01-30T03:11:12;-1.40;99.90
6210;DHT22;3138;52.550;13.148;2024-01-30T03:13:40;-1.40;99.90
6210;DHT22;3138;52.550;13.148;2024-01-30T03:16:08;-1.40;99.90
6210;DHT22;3138;52.550;13.148;2024-01-30T03:18:35;-1.40;99.90
6210;DHT22;3138;52.550;13.148;2024-01-30T03:21:02;-1.40;99.90
6210;DHT22;3138;52.550;13.148;2024-01-30T03:23:29;-1.30;99.90
6210;DHT22;3138;52.550;13.148;2024-01-30T03:25:57;-1.40;99.90
6210;DHT22;3138;52.550;13.148;2024-01-30T03:28:24;-1.40;99.90
6210;DHT22;3138;52.550;13.148;2024-01-30T03:30:53;-1.40;99.90
6210;DHT22;3138;52.550;13.148;2024-01-30T03:33:20;-1.40;99.90
6210;DHT22;3138;52.550;13.148;2024-01-30T03:35:46;-1.40;99.90
6210;DHT22;3138;52.550;13.148;2024-01-30T03:38:13;-1.50;99.90
6210;DHT22;3138;52.550;13.148;2024-01-30T03:40:40;-1.40;99.90
6210;DHT22;3138;52.550;13.148;2024-01-30T03:43:07;-1.30;99.90
6210;DHT22;3138;52.550;13.148;2024-01-30T03:45:33;-1.30;99.90
6210;DHT22;3138;52.550;13.148;2024-01-30T03:48:02;-1.40;99.90
6210;DHT22;3138;52.550;13.148;2024-01-30T03:50:29;-1.40;99.90
6210;DHT22;3138;52.550;13.148;2024-01-30T03:52:55;-1.40;99.90
6210;DHT22;3138;52.550;13.148;2024-01-30T03:55:25;-1.40;99.90
6210;DHT22;3138;52.550;13.148;2024-01-30T03:57:52;-1.40;99.90
6210;DHT22;3138;52.550;13.148;2024-01-30T04:00:19;-1.50;99.90
6210;DHT22;3138;52.550;13.148;2024-01-30T04:02:45;-1.50;99.90
6210;DHT22;3138;52.550;13.148;2024-01-30T04:05:14;-1.50;99.90
6210;DHT22;3138;52.550;13.148;2024-01-30T04:07:40;-1.50;99.90
6210;DHT22;3138;52.550;13.148;2024-01-30T04:10:09;-1.60;99.90
6210;DHT22;3138;52.550;13.148;2024-01-30T04:12:36;-1.50;99.90
6210;DHT22;3138;52.550;13.148;2024-01-30T04:15:03;-1.50;99.90
6210;DHT22;3138;52.550;13.148;2024-01-30T04:17:30;-1.50;99.90
6210;DHT22;3138;52.550;13.148;2024-01-30T04:19:58;-1.60;99.90
6210;DHT22;3138;52.550;13.148;2024-01-30T04:22:26;-1.50;99.90
6210;DHT22;3138;52.550;13.148;2024-01-30T04:24:53;-1.60;99.90
6210;DHT22;3138;52.550;13.148;2024-01-30T04:27:20;-1.60;99.90
6210;DHT22;3138;52.550;13.148;2024-01-30T04:29:46;-1.60;99.90
6210;DHT22;3138;52.550;13.148;2024-01-30T04:32:13;-1.60;99.90
6210;DHT22;3138;52.550;13.148;2024-01-30T04:34:40;-1.60;99.90
6210;DHT22;3138;52.550;13.148;2024-01-30T04:37:07;-1.60;99.90
6210;DHT22;3138;52.550;13.148;2024-01-30T04:39:35;-1.60;99.90
6210;DHT22;3138;52.550;13.148;2024-01-30T04:42:03;-1.60;99.90
6210;DHT22;3138;52.550;13.148;2024-01-30T04:44:30;-1.60;99.90
6210;DHT22;3138;52.550;13.148;2024-01-30T04:46:57;-1.60;99.90
6210;DHT22;3138;52.550;13.148;2024-01-30T04:49:26;-1.40;99.90
6210;DHT22;3138;52.550;13.148;2024-01-30T04:51:54;-1.50;99.90
6210;DHT22;3138;52.550;13.148;2024-01-30T04:54:21;-1.60;99.90
6210;DHT22;3138;52.550;13.148;2024-01-30T04:56:49;-1.60;99.90
6210;DHT22;3138;52.550;13.148;2024-01-30T04:59:16;-1.60;99.90
6210;DHT22;3138;52.550;13.148;2024-01-30T05:01:43;-1.70;99.90
6210;DHT22;3138;52.550;13.148;2024-01-30T05:04:10;-1.60;99.90
6210;DHT22;3138;52.550;13.148;2024-01-30T05:06:37;-1.60;99.90
6210;DHT22;3138;52.550;13.148;2024-01-30T05:09:04;-1.70;99.90
6210;DHT22;3138;52.550;13.148;2024-01-30T05:11:31;-1.70;99.90
6210;DHT22;3138;52.550;13.148;2024-01-30T05:13:59;-1.70;99.90
6210;DHT22;3138;52.550;13.148;2024-01-30T05:16:26;-1.70;99.90
6210;DHT22;3138;52.550;13.148;2024-01-30T05:18:53;-1.70;99.90
6210;DHT22;3138;52.550;13.148;2024-01-30T05:21:20;-1.80;99.90
6210;DHT22;3138;52.550;13.148;2024-01-30T05:23:46;-1.80;99.90
6210;DHT22;3138;52.550;13.148;2024-01-30T05:26:13;-1.70;99.90
6210;DHT22;3138;52.550;13.148;2024-01-30T05:28:40;-1.80;99.90
6210;DHT22;3138;52.550;13.148;2024-01-30T05:31:08;-1.80;99.90
6210;DHT22;3138;52.550;13.148;2024-01-30T05:33:35;-1.80;99.90
6210;DHT22;3138;52.550;13.148;2024-01-30T05:36:02;-1.70;99.90
6210;DHT22;3138;52.550;13.148;2024-01-30T05:38:29;-1.70;99.90
6210;DHT22;3138;52.550;13.148;2024-01-30T05:40:57;-1.60;99.90
6210;DHT22;3138;52.550;13.148;2024-01-30T05:43:24;-1.70;99.90
6210;DHT22;3138;52.550;13.148;2024-01-30T05:45:52;-1.70;99.90
6210;DHT22;3138;52.550;13.148;2024-01-30T05:48:20;-1.60;99.90
6210;DHT22;3138;52.550;13.148;2024-01-30T05:50:47;-1.70;99.90
6210;DHT22;3138;52.550;13.148;2024-01-30T05:53:13;-1.70;99.90
6210;DHT22;3138;52.550;13.148;2024-01-30T05:55:41;-1.60;99.90
6210;DHT22;3138;52.550;13.148;2024-01-30T05:58:07;-1.60;99.90
6210;DHT22;3138;52.550;13.148;2024-01-30T06:00:34;-1.60;99.90
6210;DHT22;3138;52.550;13.148;2024-01-30T06:03:01;-1.60;99.90
6210;DHT22;3138;52.550;13.148;2024-01-30T06:05:29;-1.70;99.90
6210;DHT22;3138;52.550;13.148;2024-01-30T06:07:56;-1.60;99.90
6210;DHT22;3138;52.550;13.148;2024-01-30T06:10:23;-1.60;99.90
6210;DHT22;3138;52.550;13.148;2024-01-30T06:12:49;-1.60;99.90
6210;DHT22;3138;52.550;13.148;2024-01-30T06:15:16;-1.60;99.90
6210;DHT22;3138;52.550;13.148;2024-01-30T06:17:43;-1.60;99.90
6210;DHT22;3138;52.550;13.148;2024-01-30T06:20:10;-1.60;99.90
6210;DHT22;3138;52.550;13.148;2024-01-30T06:22:38;-1.60;99.90
6210;DHT22;3138;52.550;13.148;2024-01-30T06:25:06;-1.60;99.90
6210;DHT22;3138;52.550;13.148;2024-01-30T06:27:33;-1.60;99.90
6210;DHT22;3138;52.550;13.148;2024-01-30T06:30:01;-1.60;99.90
6210;DHT22;3138;52.550;13.148;2024-01-30T06:32:27;-1.60;99.90
6210;DHT22;3138;52.550;13.148;2024-01-30T06:34:59;-1.60;99.90
6210;DHT22;3138;52.550;13.148;2024-01-30T06:37:26;-1.60;99.90
6210;DHT22;3138;52.550;13.148;2024-01-30T06:39:54;-1.60;99.90
6210;DHT22;3138;52.550;13.148;2024-01-30T06:42:21;-1.60;99.90
6210;DHT22;3138;52.550;13.148;2024-01-30T06:44:48;-1.60;99.90
6210;DHT22;3138;52.550;13.148;2024-01-30T06:47:15;-1.60;99.90
6210;DHT22;3138;52.550;13.148;2024-01-30T06:49:42;-1.60;99.90
6210;DHT22;3138;52.550;13.148;2024-01-30T06:52:09;-1.60;99.90
6210;DHT22;3138;52.550;13.148;2024-01-30T06:54:36;-1.50;99.90
6210;DHT22;3138;52.550;13.148;2024-01-30T06:57:05;-1.50;99.90
6210;DHT22;3138;52.550;13.148;2024-01-30T06:59:34;-1.60;99.90
6210;DHT22;3138;52.550;13.148;2024-01-30T07:02:01;-1.50;99.90
6210;DHT22;3138;52.550;13.148;2024-01-30T07:04:28;-1.40;99.90
6210;DHT22;3138;52.550;13.148;2024-01-30T07:06:54;-1.40;99.90
6210;DHT22;3138;52.550;13.148;2024-01-30T07:09:21;-1.40;99.90
6210;DHT22;3138;52.550;13.148;2024-01-30T07:11:48;-1.30;99.90
6210;DHT22;3138;52.550;13.148;2024-01-30T07:14:16;-1.30;99.90
6210;DHT22;3138;52.550;13.148;2024-01-30T07:16:43;-1.20;99.90
6210;DHT22;3138;52.550;13.148;2024-01-30T07:19:10;-1.10;99.90
6210;DHT22;3138;52.550;13.148;2024-01-30T07:21:37;-1.00;99.90
6210;DHT22;3138;52.550;13.148;2024-01-30T07:24:06;-1.00;99.90
6210;DHT22;3138;52.550;13.148;2024-01-30T07:26:33;-0.90;99.90
6210;DHT22;3138;52.550;13.148;2024-01-30T07:29:01;-0.70;99.90
6210;DHT22;3138;52.550;13.148;2024-01-30T07:31:30;-0.70;99.90
6210;DHT22;3138;52.550;13.148;2024-01-30T07:33:57;-0.40;99.90
6210;DHT22;3138;52.550;13.148;2024-01-30T07:36:24;-0.40;99.90
6210;DHT22;3138;52.550;13.148;2024-01-30T07:38:51;-0.30;99.90
6210;DHT22;3138;52.550;13.148;2024-01-30T07:41:19;-0.20;99.90
6210;DHT22;3138;52.550;13.148;2024-01-30T07:43:46;-0.10;99.90
6210;DHT22;3138;52.550;13.148;2024-01-30T07:46:13;-0.10;99.90
6210;DHT22;3138;52.550;13.148;2024-01-30T07:48:41;0.20;99.90
6210;DHT22;3138;52.550;13.148;2024-01-30T07:51:08;0.20;99.90
6210;DHT22;3138;52.550;13.148;2024-01-30T07:53:35;0.10;99.90
6210;DHT22;3138;52.550;13.148;2024-01-30T07:56:02;0.20;99.90
6210;DHT22;3138;52.550;13.148;2024-01-30T07:58:29;0.30;99.90
6210;DHT22;3138;52.550;13.148;2024-01-30T08:00:55;0.40;99.90
6210;DHT22;3138;52.550;13.148;2024-01-30T08:03:24;0.40;99.90
6210;DHT22;3138;52.550;13.148;2024-01-30T08:05:52;0.50;99.90
6210;DHT22;3138;52.550;13.148;2024-01-30T08:08:20;0.60;99.90
6210;DHT22;3138;52.550;13.148;2024-01-30T08:10:47;0.80;99.90
6210;DHT22;3138;52.550;13.148;2024-01-30T08:13:15;0.80;99.90
6210;DHT22;3138;52.550;13.148;2024-01-30T08:15:42;1.00;99.90
6210;DHT22;3138;52.550;13.148;2024-01-30T08:18:09;1.20;99.90
6210;DHT22;3138;52.550;13.148;2024-01-30T08:20:36;1.20;99.90
6210;DHT22;3138;52.550;13.148;2024-01-30T08:23:04;1.40;99.90
6210;DHT22;3138;52.550;13.148;2024-01-30T08:25:31;1.40;99.90
6210;DHT22;3138;52.550;13.148;2024-01-30T08:27:59;1.50;99.90
6210;DHT22;3138;52.550;13.148;2024-01-30T08:30:26;1.70;99.90
6210;DHT22;3138;52.550;13.148;2024-01-30T08:32:53;1.80;99.90
6210;DHT22;3138;52.550;13.148;2024-01-30T08:35:20;1.90;99.90
6210;DHT22;3138;52.550;13.148;2024-01-30T08:37:47;2.00;99.90
6210;DHT22;3138;52.550;13.148;2024-01-30T08:40:15;2.00;99.90
6210;DHT22;3138;52.550;13.148;2024-01-30T08:42:42;2.20;99.90
6210;DHT22;3138;52.550;13.148;2024-01-30T08:45:09;2.40;99.90
6210;DHT22;3138;52.550;13.148;2024-01-30T08:47:36;2.60;99.90
6210;DHT22;3138;52.550;13.148;2024-01-30T08:50:04;2.70;99.90
6210;DHT22;3138;52.550;13.148;2024-01-30T08:52:31;2.80;99.90
6210;DHT22;3138;52.550;13.148;2024-01-30T08:54:58;2.90;99.90
6210;DHT22;3138;52.550;13.148;2024-01-30T08:57:26;3.00;99.90
6210;DHT22;3138;52.550;13.148;2024-01-30T08:59:54;3.10;99.90
6210;DHT22;3138;52.550;13.148;2024-01-30T09:02:21;3.10;99.90
6210;DHT22;3138;52.550;13.148;2024-01-30T09:04:47;3.30;99.90
6210;DHT22;3138;52.550;13.148;2024-01-30T09:07:16;3.30;99.90
6210;DHT22;3138;52.550;13.148;2024-01-30T09:09:43;3.40;99.90
6210;DHT22;3138;52.550;13.148;2024-01-30T09:12:10;3.40;99.90
6210;DHT22;3138;52.550;13.148;2024-01-30T09:14:39;3.50;99.90
6210;DHT22;3138;52.550;13.148;2024-01-30T09:17:06;3.60;99.90
6210;DHT22;3138;52.550;13.148;2024-01-30T09:19:33;3.60;99.90
6210;DHT22;3138;52.550;13.148;2024-01-30T09:22:00;3.70;99.90
6210;DHT22;3138;52.550;13.148;2024-01-30T09:24:28;3.80;99.90
6210;DHT22;3138;52.550;13.148;2024-01-30T09:26:54;3.90;99.90
6210;DHT22;3138;52.550;13.148;2024-01-30T09:29:21;4.00;99.90
6210;DHT22;3138;52.550;13.148;2024-01-30T09:31:50;4.10;99.90
6210;DHT22;3138;52.550;13.148;2024-01-30T09:34:43;4.20;99.90
6210;DHT22;3138;52.550;13.148;2024-01-30T11:02:06;7.00;99.90
6210;DHT22;3138;52.550;13.148;2024-01-30T11:04:38;7.10;99.90
6210;DHT22;3138;52.550;13.148;2024-01-30T11:07:16;7.20;99.90
6210;DHT22;3138;52.550;13.148;2024-01-30T11:09:49;7.30;99.90
6210;DHT22;3138;52.550;13.148;2024-01-30T11:12:16;7.20;99.90
6210;DHT22;3138;52.550;13.148;2024-01-30T11:14:43;7.30;99.90
6210;DHT22;3138;52.550;13.148;2024-01-30T11:17:11;7.40;99.90
6210;DHT22;3138;52.550;13.148;2024-01-30T11:19:38;7.30;99.90
6210;DHT22;3138;52.550;13.148;2024-01-30T11:22:07;7.20;99.90
6210;DHT22;3138;52.550;13.148;2024-01-30T11:24:39;7.30;99.90
6210;DHT22;3138;52.550;13.148;2024-01-30T11:27:09;7.30;99.90
6210;DHT22;3138;52.550;13.148;2024-01-30T11:29:37;7.40;99.90
6210;DHT22;3138;52.550;13.148;2024-01-30T11:32:04;7.40;99.90
6210;DHT22;3138;52.550;13.148;2024-01-30T11:34:33;7.40;99.90
6210;DHT22;3138;52.550;13.148;2024-01-30T11:37:04;7.40;99.90
6210;DHT22;3138;52.550;13.148;2024-01-30T11:39:36;7.50;99.90
6210;DHT22;3138;52.550;13.148;2024-01-30T11:42:06;7.50;99.90
6210;DHT22;3138;52.550;13.148;2024-01-30T11:44:34;7.60;99.90
6210;DHT22;3138;52.550;13.148;2024-01-30T11:47:01;7.70;99.90
6210;DHT22;3138;52.550;13.148;2024-01-30T11:49:29;7.70;99.90
6210;DHT22;3138;52.550;13.148;2024-01-30T11:51:57;7.80;99.90
6210;DHT22;3138;52.550;13.148;2024-01-30T11:54:24;7.80;99.90
6210;DHT22;3138;52.550;13.148;2024-01-30T11:56:51;7.80;99.90
6210;DHT22;3138;52.550;13.148;2024-01-30T11:59:17;7.90;99.90
6210;DHT22;3138;52.550;13.148;2024-01-30T12:01:44;7.90;99.90
6210;DHT22;3138;52.550;13.148;2024-01-30T12:04:11;7.90;99.90
6210;DHT22;3138;52.550;13.148;2024-01-30T12:06:39;8.00;99.90
6210;DHT22;3138;52.550;13.148;2024-01-30T12:09:08;7.90;99.90
6210;DHT22;3138;52.550;13.148;2024-01-30T12:11:44;7.90;99.90
6210;DHT22;3138;52.550;13.148;2024-01-30T12:14:12;7.90;99.90
6210;DHT22;3138;52.550;13.148;2024-01-30T12:16:39;7.90;99.90
6210;DHT22;3138;52.550;13.148;2024-01-30T12:19:07;7.90;99.90
6210;DHT22;3138;52.550;13.148;2024-01-30T12:21:34;7.90;99.90
6210;DHT22;3138;52.550;13.148;2024-01-30T12:24:01;7.90;99.90
6210;DHT22;3138;52.550;13.148;2024-01-30T12:26:29;7.90;99.90
6210;DHT22;3138;52.550;13.148;2024-01-30T12:28:56;7.90;99.90
6210;DHT22;3138;52.550;13.148;2024-01-30T12:31:27;8.00;99.90
6210;DHT22;3138;52.550;13.148;2024-01-30T12:33:54;8.10;99.90
6210;DHT22;3138;52.550;13.148;2024-01-30T12:36:22;8.00;99.90
6210;DHT22;3138;52.550;13.148;2024-01-30T12:38:50;8.00;99.90
6210;DHT22;3138;52.550;13.148;2024-01-30T12:41:17;7.90;99.90
6210;DHT22;3138;52.550;13.148;2024-01-30T12:43:45;8.00;99.90
6210;DHT22;3138;52.550;13.148;2024-01-30T12:46:13;8.10;99.90
6210;DHT22;3138;52.550;13.148;2024-01-30T12:48:40;8.10;99.90
6210;DHT22;3138;52.550;13.148;2024-01-30T12:51:06;8.00;99.90
6210;DHT22;3138;52.550;13.148;2024-01-30T12:53:33;8.00;99.90
6210;DHT22;3138;52.550;13.148;2024-01-30T12:56:00;7.90;99.90
6210;DHT22;3138;52.550;13.148;2024-01-30T12:58:27;8.00;99.90
6210;DHT22;3138;52.550;13.148;2024-01-30T13:00:55;7.90;99.90
6210;DHT22;3138;52.550;13.148;2024-01-30T13:03:22;7.80;99.90
6210;DHT22;3138;52.550;13.148;2024-01-30T13:05:49;7.80;99.90
6210;DHT22;3138;52.550;13.148;2024-01-30T13:08:16;7.80;99.90
6210;DHT22;3138;52.550;13.148;2024-01-30T13:10:43;7.70;99.90
6210;DHT22;3138;52.550;13.148;2024-01-30T13:13:10;7.70;99.90
6210;DHT22;3138;52.550;13.148;2024-01-30T13:15:36;7.70;99.90
6210;DHT22;3138;52.550;13.148;2024-01-30T13:18:05;7.70;99.90
6210;DHT22;3138;52.550;13.148;2024-01-30T13:20:32;7.70;99.90
6210;DHT22;3138;52.550;13.148;2024-01-30T13:22:59;7.70;99.90
6210;DHT22;3138;52.550;13.148;2024-01-30T13:25:26;7.70;99.90
6210;DHT22;3138;52.550;13.148;2024-01-30T13:27:53;7.70;99.90
6210;DHT22;3138;52.550;13.148;2024-01-30T13:30:20;7.70;99.90
6210;DHT22;3138;52.550;13.148;2024-01-30T13:32:46;7.80;99.90
6210;DHT22;3138;52.550;13.148;2024-01-30T13:35:15;7.80;99.90
6210;DHT22;3138;52.550;13.148;2024-01-30T13:37:41;7.80;99.90
6210;DHT22;3138;52.550;13.148;2024-01-30T13:40:09;7.80;99.90
6210;DHT22;3138;52.550;13.148;2024-01-30T13:42:36;7.90;99.90
6210;DHT22;3138;52.550;13.148;2024-01-30T13:45:03;7.90;99.90
6210;DHT22;3138;52.550;13.148;2024-01-30T13:47:30;7.90;99.90
6210;DHT22;3138;52.550;13.148;2024-01-30T13:49:57;7.90;99.90
6210;DHT22;3138;52.550;13.148;2024-01-30T13:52:24;7.90;99.90
6210;DHT22;3138;52.550;13.148;2024-01-30T13:54:52;7.80;99.90
6210;DHT22;3138;52.550;13.148;2024-01-30T13:57:19;7.90;99.90
6210;DHT22;3138;52.550;13.148;2024-01-30T13:59:46;7.90;99.90
6210;DHT22;3138;52.550;13.148;2024-01-30T14:02:13;7.90;99.90
6210;DHT22;3138;52.550;13.148;2024-01-30T14:04:40;7.80;99.90
6210;DHT22;3138;52.550;13.148;2024-01-30T14:07:06;7.90;99.90
6210;DHT22;3138;52.550;13.148;2024-01-30T14:09:35;7.90;99.90
6210;DHT22;3138;52.550;13.148;2024-01-30T14:12:02;7.80;99.90
6210;DHT22;3138;52.550;13.148;2024-01-30T14:14:28;7.80;99.90
6210;DHT22;3138;52.550;13.148;2024-01-30T14:16:55;7.80;99.90
6210;DHT22;3138;52.550;13.148;2024-01-30T14:19:22;7.80;99.90
6210;DHT22;3138;52.550;13.148;2024-01-30T14:21:49;7.80;99.90
6210;DHT22;3138;52.550;13.148;2024-01-30T14:24:16;7.80;99.90
6210;DHT22;3138;52.550;13.148;2024-01-30T14:26:44;7.80;99.90
6210;DHT22;3138;52.550;13.148;2024-01-30T14:29:10;7.80;99.90
6210;DHT22;3138;52.550;13.148;2024-01-30T14:31:37;7.80;99.90
6210;DHT22;3138;52.550;13.148;2024-01-30T14:34:04;7.70;99.90
6210;DHT22;3138;52.550;13.148;2024-01-30T14:36:31;7.70;99.90
6210;DHT22;3138;52.550;13.148;2024-01-30T14:38:58;7.70;99.90
6210;DHT22;3138;52.550;13.148;2024-01-30T14:41:25;7.70;99.90
6210;DHT22;3138;52.550;13.148;2024-01-30T14:43:53;7.70;99.90
6210;DHT22;3138;52.550;13.148;2024-01-30T14:46:20;7.60;99.90
6210;DHT22;3138;52.550;13.148;2024-01-30T14:48:47;7.60;99.90
6210;DHT22;3138;52.550;13.148;2024-01-30T14:51:16;7.50;99.90
6210;DHT22;3138;52.550;13.148;2024-01-30T14:53:43;7.40;99.90
6210;DHT22;3138;52.550;13.148;2024-01-30T14:56:10;7.40;99.90
6210;DHT22;3138;52.550;13.148;2024-01-30T14:58:37;7.30;99.90
6210;DHT22;3138;52.550;13.148;2024-01-30T15:01:07;7.20;99.90
6210;DHT22;3138;52.550;13.148;2024-01-30T15:03:33;7.20;99.90
6210;DHT22;3138;52.550;13.148;2024-01-30T15:06:01;7.30;99.90
6210;DHT22;3138;52.550;13.148;2024-01-30T15:08:30;7.20;99.90
6210;DHT22;3138;52.550;13.148;2024-01-30T15:10:59;7.10;99.90
6210;DHT22;3138;52.550;13.148;2024-01-30T15:13:26;7.10;99.90
6210;DHT22;3138;52.550;13.148;2024-01-30T15:15:53;7.00;99.90
6210;DHT22;3138;52.550;13.148;2024-01-30T15:18:21;6.90;99.90
6210;DHT22;3138;52.550;13.148;2024-01-30T15:20:48;6.90;99.90
6210;DHT22;3138;52.550;13.148;2024-01-30T15:23:15;6.90;99.90
6210;DHT22;3138;52.550;13.148;2024-01-30T15:25:42;6.90;99.90
6210;DHT22;3138;52.550;13.148;2024-01-30T15:28:09;6.80;99.90
6210;DHT22;3138;52.550;13.148;2024-01-30T15:30:36;6.70;99.90
6210;DHT22;3138;52.550;13.148;2024-01-30T15:33:03;6.60;99.90
6210;DHT22;3138;52.550;13.148;2024-01-30T15:35:31;6.50;99.90
6210;DHT22;3138;52.550;13.148;2024-01-30T15:37:58;6.50;99.90
6210;DHT22;3138;52.550;13.148;2024-01-30T15:40:25;6.50;99.90
6210;DHT22;3138;52.550;13.148;2024-01-30T15:42:52;6.40;99.90
6210;DHT22;3138;52.550;13.148;2024-01-30T15:45:18;6.40;99.90
6210;DHT22;3138;52.550;13.148;2024-01-30T15:47:45;6.40;99.90
6210;DHT22;3138;52.550;13.148;2024-01-30T15:50:12;6.30;99.90
6210;DHT22;3138;52.550;13.148;2024-01-30T15:52:40;6.30;99.90
6210;DHT22;3138;52.550;13.148;2024-01-30T15:55:07;6.20;99.90
6210;DHT22;3138;52.550;13.148;2024-01-30T15:57:34;6.20;99.90
6210;DHT22;3138;52.550;13.148;2024-01-30T16:00:01;6.20;99.90
6210;DHT22;3138;52.550;13.148;2024-01-30T16:02:29;6.10;99.90
6210;DHT22;3138;52.550;13.148;2024-01-30T16:04:55;6.00;99.90
6210;DHT22;3138;52.550;13.148;2024-01-30T16:07:22;5.90;95.70
6210;DHT22;3138;52.550;13.148;2024-01-30T16:09:50;5.90;97.20
6210;DHT22;3138;52.550;13.148;2024-01-30T16:12:17;5.80;97.60
6210;DHT22;3138;52.550;13.148;2024-01-30T16:14:44;5.70;98.60
6210;DHT22;3138;52.550;13.148;2024-01-30T16:17:10;5.80;99.90
6210;DHT22;3138;52.550;13.148;2024-01-30T16:19:37;5.80;99.70
6210;DHT22;3138;52.550;13.148;2024-01-30T16:22:05;5.80;99.90
6210;DHT22;3138;52.550;13.148;2024-01-30T16:24:32;5.70;99.90
6210;DHT22;3138;52.550;13.148;2024-01-30T16:27:00;5.50;99.90
6210;DHT22;3138;52.550;13.148;2024-01-30T16:29:27;5.40;99.90
6210;DHT22;3138;52.550;13.148;2024-01-30T16:31:54;5.50;99.90
6210;DHT22;3138;52.550;13.148;2024-01-30T16:34:22;5.50;99.90
6210;DHT22;3138;52.550;13.148;2024-01-30T16:36:48;5.50;99.90
6210;DHT22;3138;52.550;13.148;2024-01-30T16:39:15;5.50;99.90
6210;DHT22;3138;52.550;13.148;2024-01-30T16:41:42;5.40;99.90
6210;DHT22;3138;52.550;13.148;2024-01-30T16:44:10;5.50;99.90
6210;DHT22;3138;52.550;13.148;2024-01-30T16:46:37;5.50;99.90
6210;DHT22;3138;52.550;13.148;2024-01-30T16:49:05;5.60;99.90
6210;DHT22;3138;52.550;13.148;2024-01-30T16:51:32;5.50;99.90
6210;DHT22;3138;52.550;13.148;2024-01-30T16:53:58;5.50;99.90
6210;DHT22;3138;52.550;13.148;2024-01-30T16:56:25;5.50;99.90
6210;DHT22;3138;52.550;13.148;2024-01-30T16:58:52;5.50;99.90
6210;DHT22;3138;52.550;13.148;2024-01-30T17:01:20;5.50;99.90
6210;DHT22;3138;52.550;13.148;2024-01-30T17:03:48;5.50;99.90
6210;DHT22;3138;52.550;13.148;2024-01-30T17:06:15;5.50;99.90
6210;DHT22;3138;52.550;13.148;2024-01-30T17:08:41;5.50;99.90
6210;DHT22;3138;52.550;13.148;2024-01-30T17:11:08;5.50;99.90
6210;DHT22;3138;52.550;13.148;2024-01-30T17:13:36;5.40;99.90
6210;DHT22;3138;52.550;13.148;2024-01-30T17:16:03;5.40;99.90
6210;DHT22;3138;52.550;13.148;2024-01-30T17:18:31;5.40;99.90
6210;DHT22;3138;52.550;13.148;2024-01-30T17:20:58;5.50;99.90